createdAt,value
2019-03-27T00:00:04.044Z,97.70
2019-03-27T00:02:35.795Z,97.70
2019-03-27T00:05:06.419Z,97.80
2019-03-27T00:07:36.748Z,97.80
2019-03-27T00:10:10.455Z,97.70
2019-03-27T00:12:40.784Z,97.80
2019-03-27T00:15:13.949Z,97.90
2019-03-27T00:17:44.439Z,98.00
2019-03-27T00:20:16.867Z,98.10
2019-03-27T00:22:47.173Z,98.10
2019-03-27T00:25:17.442Z,98.20
2019-03-27T00:27:47.665Z,98.00
2019-03-27T00:30:19.705Z,98.00
2019-03-27T00:32:49.997Z,97.90
2019-03-27T00:35:20.847Z,97.90
2019-03-27T00:37:51.089Z,97.90
2019-03-27T00:40:22.423Z,97.90
2019-03-27T00:42:52.663Z,97.80
2019-03-27T00:45:26.889Z,97.80
2019-03-27T00:47:54.884Z,97.80
2019-03-27T00:50:25.172Z,97.70
2019-03-27T00:52:55.362Z,97.70
2019-03-27T00:55:25.656Z,97.60
2019-03-27T00:57:55.922Z,97.50
2019-03-27T01:00:34.483Z,97.60
2019-03-27T01:03:04.673Z,97.80
2019-03-27T01:05:34.903Z,97.90
2019-03-27T01:08:05.163Z,98.10
2019-03-27T01:10:35.556Z,98.40
2019-03-27T01:13:05.933Z,98.50
2019-03-27T01:15:39.940Z,98.80
2019-03-27T01:18:09.257Z,99.00
2019-03-27T01:20:39.541Z,99.10
2019-03-27T01:23:10.264Z,99.40
2019-03-27T01:25:40.562Z,99.00
2019-03-27T01:28:10.865Z,99.10
2019-03-27T01:30:41.205Z,99.20
2019-03-27T01:33:11.403Z,99.70
2019-03-27T01:35:41.730Z,99.50
2019-03-27T01:38:11.990Z,99.50
2019-03-27T01:40:43.728Z,99.70
2019-03-27T01:43:13.913Z,99.80
2019-03-27T01:45:52.987Z,99.80
2019-03-27T01:48:16.064Z,99.90
2019-03-27T01:50:46.416Z,99.90
2019-03-27T01:53:16.598Z,99.90
2019-03-27T01:55:46.942Z,99.90
2019-03-27T01:58:17.165Z,99.90
2019-03-27T02:00:47.467Z,99.90
2019-03-27T02:03:17.666Z,99.90
2019-03-27T02:05:47.997Z,99.90
2019-03-27T02:08:18.273Z,99.90
2019-03-27T02:10:48.584Z,99.90
2019-03-27T02:13:18.881Z,99.90
2019-03-27T02:15:50.807Z,99.90
2019-03-27T02:18:21.013Z,99.90
2019-03-27T02:20:51.287Z,99.90
2019-03-27T02:23:21.474Z,99.90
2019-03-27T02:25:51.748Z,99.80
2019-03-27T02:28:21.951Z,99.90
2019-03-27T02:30:52.181Z,99.90
2019-03-27T02:33:22.366Z,99.80
2019-03-27T02:35:52.650Z,99.90
2019-03-27T02:38:22.930Z,99.90
2019-03-27T02:40:53.255Z,99.90
2019-03-27T02:43:23.493Z,99.90
2019-03-27T02:45:53.784Z,99.90
2019-03-27T02:48:24.035Z,99.90
2019-03-27T02:50:54.337Z,99.90
2019-03-27T02:53:24.537Z,99.90
2019-03-27T02:55:54.774Z,99.90
2019-03-27T02:58:25.207Z,99.80
2019-03-27T03:00:55.511Z,99.80
2019-03-27T03:03:26.864Z,99.70
2019-03-27T03:06:00.313Z,99.60
2019-03-27T03:08:30.838Z,99.70
2019-03-27T03:11:01.061Z,99.60
2019-03-27T03:13:31.367Z,99.60
2019-03-27T03:16:01.609Z,99.60
2019-03-27T03:18:31.868Z,99.60
2019-03-27T03:21:02.098Z,99.70
2019-03-27T03:23:32.300Z,99.60
2019-03-27T03:26:02.566Z,99.60
2019-03-27T03:28:32.833Z,99.70
2019-03-27T03:31:03.120Z,99.60
2019-03-27T03:33:33.387Z,99.70
2019-03-27T03:36:04.194Z,99.70
2019-03-27T03:38:34.374Z,99.80
2019-03-27T03:41:04.645Z,99.90
2019-03-27T03:43:34.905Z,99.90
2019-03-27T03:46:05.165Z,99.90
2019-03-27T03:48:36.474Z,99.90
2019-03-27T03:51:06.660Z,99.90
2019-03-27T03:53:36.876Z,99.90
2019-03-27T03:56:08.183Z,99.90
2019-03-27T03:58:40.858Z,99.90
2019-03-27T04:01:11.628Z,99.90
2019-03-27T04:03:44.933Z,99.90
2019-03-27T04:06:15.175Z,99.90
2019-03-27T04:08:45.488Z,99.90
2019-03-27T04:11:15.739Z,99.90
2019-03-27T04:13:46.005Z,99.90
2019-03-27T04:16:16.699Z,99.90
2019-03-27T04:18:47.228Z,99.90
2019-03-27T04:21:17.897Z,99.90
2019-03-27T04:23:48.068Z,99.90
2019-03-27T04:26:18.261Z,99.90
2019-03-27T04:28:48.560Z,99.90
2019-03-27T04:31:18.760Z,99.90
2019-03-27T04:33:49.050Z,99.90
2019-03-27T04:36:19.318Z,99.90
2019-03-27T04:38:49.541Z,99.90
2019-03-27T04:41:19.723Z,99.90
2019-03-27T04:43:50.025Z,99.90
2019-03-27T04:46:20.294Z,99.90
2019-03-27T04:48:51.078Z,99.90
2019-03-27T04:51:21.459Z,99.90
2019-03-27T04:53:51.763Z,99.90
2019-03-27T04:56:21.965Z,99.90
2019-03-27T04:58:52.266Z,99.90
2019-03-27T05:01:22.456Z,99.90
2019-03-27T05:03:53.557Z,99.90
2019-03-27T05:06:23.751Z,99.90
2019-03-27T05:08:54.044Z,99.90
2019-03-27T05:11:24.961Z,99.90
2019-03-27T05:13:55.438Z,99.90
2019-03-27T05:16:25.666Z,99.90
2019-03-27T05:18:55.988Z,99.90
2019-03-27T05:21:26.213Z,99.90
2019-03-27T05:23:56.509Z,99.90
2019-03-27T05:26:26.760Z,99.90
2019-03-27T05:28:56.986Z,99.90
2019-03-27T05:31:27.267Z,99.90
2019-03-27T05:33:57.485Z,99.90
2019-03-27T05:36:27.762Z,99.90
2019-03-27T05:38:58.061Z,99.90
2019-03-27T05:41:28.324Z,99.90
2019-03-27T05:43:58.620Z,99.90
2019-03-27T05:46:28.888Z,99.90
2019-03-27T05:48:59.194Z,99.90
2019-03-27T05:51:29.401Z,99.90
2019-03-27T05:54:00.332Z,99.90
2019-03-27T05:56:30.544Z,99.90
2019-03-27T05:59:00.813Z,99.90
2019-03-27T06:01:31.016Z,99.90
2019-03-27T06:04:01.278Z,99.90
2019-03-27T06:06:31.547Z,99.90
2019-03-27T06:09:02.443Z,99.90
2019-03-27T06:11:32.916Z,99.90
2019-03-27T06:14:03.390Z,99.90
2019-03-27T06:16:33.842Z,99.90
2019-03-27T06:19:04.120Z,99.90
2019-03-27T06:21:34.815Z,99.90
2019-03-27T06:24:05.157Z,99.90
2019-03-27T06:26:35.488Z,99.90
2019-03-27T06:29:05.906Z,99.90
2019-03-27T06:31:36.163Z,99.90
2019-03-27T06:34:06.808Z,99.90
2019-03-27T06:36:37.138Z,99.90
2019-03-27T06:39:07.346Z,99.70
2019-03-27T06:41:37.669Z,99.80
2019-03-27T06:44:08.082Z,99.50
2019-03-27T06:46:38.281Z,99.40
2019-03-27T06:49:08.576Z,99.50
2019-03-27T06:51:40.648Z,99.60
2019-03-27T06:54:11.067Z,98.90
2019-03-27T06:56:42.089Z,98.60
2019-03-27T06:59:12.408Z,98.20
2019-03-27T07:01:42.683Z,98.10
2019-03-27T07:04:12.989Z,97.70
2019-03-27T07:06:43.189Z,98.00
2019-03-27T07:09:13.423Z,97.40
2019-03-27T07:11:43.699Z,97.10
2019-03-27T07:14:13.990Z,97.10
2019-03-27T07:16:46.094Z,97.30
2019-03-27T07:19:16.435Z,96.70
2019-03-27T07:21:46.655Z,96.40
2019-03-27T07:24:17.466Z,96.60
2019-03-27T07:26:47.763Z,96.90
2019-03-27T07:29:19.202Z,96.60
2019-03-27T07:31:49.943Z,95.90
2019-03-27T07:34:21.190Z,95.90
2019-03-27T07:36:51.422Z,95.90
2019-03-27T07:39:21.682Z,95.10
2019-03-27T07:41:51.986Z,95.40
2019-03-27T07:44:22.202Z,95.60
2019-03-27T07:46:53.496Z,95.40
2019-03-27T07:49:23.762Z,95.10
2019-03-27T07:51:54.049Z,95.10
2019-03-27T07:54:24.308Z,94.30
2019-03-27T07:56:54.605Z,94.40
2019-03-27T07:59:24.915Z,94.40
2019-03-27T08:01:55.258Z,94.40
2019-03-27T08:04:25.477Z,94.30
2019-03-27T08:06:55.771Z,93.50
2019-03-27T08:09:26.033Z,93.50
2019-03-27T08:11:56.319Z,94.30
2019-03-27T08:14:26.569Z,94.40
2019-03-27T08:16:57.248Z,94.10
2019-03-27T08:19:27.577Z,93.90
2019-03-27T08:21:57.878Z,92.80
2019-03-27T08:24:29.171Z,93.60
2019-03-27T08:26:59.393Z,92.50
2019-03-27T08:29:29.677Z,91.80
2019-03-27T08:32:00.489Z,91.10
2019-03-27T08:34:30.649Z,91.40
2019-03-27T08:37:00.941Z,90.00
2019-03-27T08:39:31.557Z,89.90
2019-03-27T08:42:02.211Z,90.00
2019-03-27T08:44:32.391Z,90.00
2019-03-27T08:47:03.429Z,89.30
2019-03-27T08:49:33.646Z,89.20
2019-03-27T08:52:04.946Z,88.50
2019-03-27T08:54:35.204Z,90.00
2019-03-27T08:57:05.503Z,87.50
2019-03-27T08:59:36.477Z,83.30
2019-03-27T09:02:06.683Z,81.10
2019-03-27T09:04:37.538Z,82.70
2019-03-27T09:07:07.809Z,86.50
2019-03-27T09:09:38.582Z,90.00
2019-03-27T09:12:08.811Z,86.70
2019-03-27T09:14:39.128Z,85.90
2019-03-27T09:17:09.424Z,84.90
2019-03-27T09:19:39.752Z,84.50
2019-03-27T09:22:10.052Z,84.40
2019-03-27T09:24:40.339Z,78.50
2019-03-27T09:27:10.631Z,73.40
2019-03-27T09:29:40.819Z,75.00
2019-03-27T09:32:11.096Z,75.00
2019-03-27T09:34:41.296Z,73.80
2019-03-27T09:37:11.520Z,75.40
2019-03-27T09:39:41.984Z,77.50
2019-03-27T09:42:12.429Z,75.30
2019-03-27T09:44:42.638Z,73.60
2019-03-27T09:47:13.766Z,71.00
2019-03-27T09:49:49.804Z,71.70
2019-03-27T09:52:15.958Z,74.20
2019-03-27T09:54:46.144Z,74.90
2019-03-27T09:57:16.360Z,71.30
2019-03-27T09:59:46.713Z,71.40
2019-03-27T10:02:16.955Z,72.60
2019-03-27T10:04:47.209Z,70.40
2019-03-27T10:07:17.504Z,70.10
2019-03-27T10:09:50.392Z,69.70
2019-03-27T10:12:19.694Z,69.30
2019-03-27T10:14:50.095Z,69.00
2019-03-27T10:17:21.875Z,70.40
2019-03-27T10:20:02.760Z,68.90
2019-03-27T10:22:24.265Z,68.60
2019-03-27T10:24:54.602Z,68.10
2019-03-27T10:27:25.221Z,68.40
2019-03-27T10:29:55.563Z,68.40
2019-03-27T10:32:25.855Z,66.90
2019-03-27T10:34:56.605Z,68.30
2019-03-27T10:37:29.616Z,68.80
2019-03-27T10:39:59.934Z,68.20
2019-03-27T10:42:30.464Z,68.10
2019-03-27T10:45:00.724Z,68.80
2019-03-27T10:47:31.008Z,67.80
2019-03-27T10:50:01.260Z,64.60
2019-03-27T10:52:31.559Z,66.70
2019-03-27T10:55:01.813Z,66.80
2019-03-27T10:57:32.046Z,68.00
2019-03-27T11:00:02.319Z,67.70
2019-03-27T11:02:32.910Z,68.20
2019-03-27T11:05:05.198Z,67.60
2019-03-27T11:07:36.063Z,67.50
2019-03-27T11:10:08.751Z,66.50
2019-03-27T11:12:39.055Z,67.50
2019-03-27T11:15:11.712Z,66.30
2019-03-27T11:17:42.090Z,63.60
2019-03-27T11:20:12.736Z,62.80
2019-03-27T11:22:43.037Z,62.80
2019-03-27T11:25:13.727Z,65.30
2019-03-27T11:27:44.150Z,64.80
2019-03-27T11:30:15.025Z,64.20
2019-03-27T11:32:45.344Z,63.10
2019-03-27T11:35:15.610Z,63.40
2019-03-27T11:37:45.916Z,62.90
2019-03-27T11:40:17.104Z,64.10
2019-03-27T11:42:48.478Z,63.70
2019-03-27T11:45:18.716Z,62.80
2019-03-27T11:47:49.004Z,63.20
2019-03-27T11:50:19.672Z,62.40
2019-03-27T11:52:50.140Z,61.90
2019-03-27T11:55:20.386Z,63.40
2019-03-27T11:57:50.682Z,64.40
2019-03-27T12:00:20.987Z,63.60
2019-03-27T12:02:51.702Z,61.10
2019-03-27T12:05:21.938Z,61.60
2019-03-27T12:07:52.192Z,64.70
2019-03-27T12:10:22.436Z,66.30
2019-03-27T12:12:52.734Z,67.00
2019-03-27T12:15:33.198Z,65.30
2019-03-27T12:18:03.528Z,64.20
2019-03-27T12:20:33.808Z,65.10
2019-03-27T12:23:05.131Z,60.60
2019-03-27T12:25:35.516Z,61.80
2019-03-27T12:28:05.792Z,63.90
2019-03-27T12:30:36.124Z,66.60
2019-03-27T12:33:13.207Z,67.40
2019-03-27T12:35:43.531Z,63.40
2019-03-27T12:38:13.719Z,61.90
2019-03-27T12:40:44.669Z,58.00
2019-03-27T12:43:14.884Z,59.30
2019-03-27T12:45:45.071Z,58.40
2019-03-27T12:48:15.569Z,58.50
2019-03-27T12:50:47.392Z,59.90
2019-03-27T12:53:17.687Z,60.00
2019-03-27T12:55:48.674Z,62.30
2019-03-27T12:58:18.950Z,63.50
2019-03-27T13:00:49.331Z,59.10
2019-03-27T13:03:19.759Z,60.20
2019-03-27T13:05:49.957Z,61.40
2019-03-27T13:08:20.242Z,62.30
2019-03-27T13:10:50.443Z,63.80
2019-03-27T13:13:20.741Z,64.40
2019-03-27T13:15:51.000Z,63.30
2019-03-27T13:18:21.220Z,60.90
2019-03-27T13:20:51.532Z,60.70
2019-03-27T13:23:21.760Z,62.00
2019-03-27T13:25:52.081Z,61.00
2019-03-27T13:28:23.438Z,61.70
2019-03-27T13:30:53.650Z,62.40
2019-03-27T13:33:23.903Z,63.00
2019-03-27T13:35:54.208Z,62.90
2019-03-27T13:38:24.456Z,63.20
2019-03-27T13:40:55.487Z,61.90
2019-03-27T13:43:26.951Z,62.30
2019-03-27T13:45:57.331Z,62.70
2019-03-27T13:48:27.997Z,62.80
2019-03-27T13:50:58.255Z,61.40
2019-03-27T13:53:28.467Z,61.40
2019-03-27T13:55:59.189Z,60.60
2019-03-27T13:58:29.629Z,58.00
2019-03-27T14:00:59.969Z,58.00
2019-03-27T14:03:30.212Z,57.60
2019-03-27T14:06:01.465Z,58.70
2019-03-27T14:08:31.769Z,59.30
2019-03-27T14:11:02.103Z,60.00
2019-03-27T14:13:32.831Z,60.70
2019-03-27T14:16:04.063Z,61.80
2019-03-27T14:18:34.965Z,63.00
2019-03-27T14:21:05.864Z,64.40
2019-03-27T14:23:36.167Z,65.30
2019-03-27T14:26:06.437Z,66.10
2019-03-27T14:28:37.166Z,67.40
2019-03-27T14:31:07.522Z,68.50
2019-03-27T14:33:37.822Z,69.30
2019-03-27T14:36:08.103Z,69.50
2019-03-27T14:38:38.384Z,70.50
2019-03-27T14:41:08.933Z,71.40
2019-03-27T14:43:39.220Z,73.20
2019-03-27T14:46:09.419Z,73.60
2019-03-27T14:48:39.736Z,74.70
2019-03-27T14:51:10.013Z,74.60
2019-03-27T14:53:40.952Z,75.10
2019-03-27T14:56:11.210Z,76.10
2019-03-27T14:58:41.500Z,76.60
2019-03-27T15:01:11.762Z,76.60
2019-03-27T15:03:41.973Z,77.00
2019-03-27T15:06:12.232Z,76.40
2019-03-27T15:08:42.554Z,76.50
2019-03-27T15:11:13.708Z,77.00
2019-03-27T15:13:44.000Z,77.30
2019-03-27T15:16:15.498Z,77.70
2019-03-27T15:18:45.732Z,77.50
2019-03-27T15:21:16.025Z,78.10
2019-03-27T15:23:46.326Z,78.40
2019-03-27T15:26:16.521Z,78.80
2019-03-27T15:28:46.738Z,79.20
2019-03-27T15:31:20.775Z,80.30
2019-03-27T15:33:48.951Z,81.10
2019-03-27T15:36:19.754Z,82.90
2019-03-27T15:38:50.040Z,84.50
2019-03-27T15:41:21.300Z,86.00
2019-03-27T15:43:51.703Z,87.50
2019-03-27T15:46:22.501Z,88.40
2019-03-27T15:48:52.811Z,89.10
2019-03-27T15:51:24.125Z,88.90
2019-03-27T15:53:54.452Z,88.90
2019-03-27T15:56:25.331Z,89.00
2019-03-27T15:58:56.386Z,89.70
2019-03-27T16:01:26.895Z,90.10
2019-03-27T16:03:57.185Z,90.20
2019-03-27T16:06:27.383Z,90.50
2019-03-27T16:08:57.616Z,90.60
2019-03-27T16:11:28.426Z,90.70
2019-03-27T16:13:58.803Z,90.50
2019-03-27T16:16:29.067Z,90.60
2019-03-27T16:18:59.387Z,90.50
2019-03-27T16:21:29.739Z,90.50
2019-03-27T16:24:06.401Z,90.60
2019-03-27T16:26:31.828Z,90.70
2019-03-27T16:29:21.434Z,91.10
2019-03-27T16:31:52.359Z,91.60
2019-03-27T16:34:25.096Z,91.80
2019-03-27T16:36:54.439Z,91.90
2019-03-27T16:39:24.727Z,92.10
2019-03-27T16:41:55.402Z,92.10
2019-03-27T16:44:25.703Z,92.30
2019-03-27T16:46:56.005Z,92.10
2019-03-27T16:49:26.309Z,92.30
2019-03-27T16:51:56.909Z,92.40
2019-03-27T16:54:27.169Z,92.40
2019-03-27T16:56:57.472Z,92.70
2019-03-27T16:59:28.497Z,92.70
2019-03-27T17:01:59.341Z,92.90
2019-03-27T17:04:29.574Z,93.10
2019-03-27T17:06:59.831Z,93.30
2019-03-27T17:09:30.102Z,93.30
2019-03-27T17:12:00.443Z,93.40
2019-03-27T17:14:31.039Z,93.50
2019-03-27T17:17:01.279Z,93.40
2019-03-27T17:19:39.070Z,93.40
2019-03-27T17:22:19.441Z,93.50
2019-03-27T17:24:41.303Z,93.60
2019-03-27T17:27:11.589Z,93.70
2019-03-27T17:29:42.557Z,93.80
2019-03-27T17:32:12.855Z,94.10
2019-03-27T17:34:43.152Z,94.20
2019-03-27T17:37:13.439Z,94.20
2019-03-27T17:39:43.745Z,94.50
2019-03-27T17:42:14.108Z,94.60
2019-03-27T17:44:44.405Z,94.90
2019-03-27T17:47:14.699Z,95.00
2019-03-27T17:49:45.049Z,95.20
2019-03-27T17:52:15.391Z,95.40
2019-03-27T17:54:47.135Z,95.70
2019-03-27T17:57:18.434Z,95.90
2019-03-27T17:59:50.340Z,96.20
2019-03-27T18:02:22.655Z,96.40
2019-03-27T18:04:55.732Z,96.50
2019-03-27T18:07:26.031Z,96.70
2019-03-27T18:09:56.376Z,96.70
2019-03-27T18:12:27.036Z,96.80
2019-03-27T18:14:59.110Z,97.00
2019-03-27T18:17:29.489Z,97.10
2019-03-27T18:19:59.758Z,97.20
2019-03-27T18:22:30.457Z,97.10
2019-03-27T18:25:00.997Z,97.20
2019-03-27T18:27:31.340Z,97.30
2019-03-27T18:30:01.731Z,97.40
2019-03-27T18:32:32.223Z,97.40
2019-03-27T18:35:02.589Z,97.50
2019-03-27T18:37:32.866Z,97.50
2019-03-27T18:40:03.423Z,97.40
2019-03-27T18:42:33.689Z,97.40
2019-03-27T18:45:05.437Z,97.40
2019-03-27T18:47:35.718Z,97.30
2019-03-27T18:50:07.728Z,97.40
2019-03-27T18:52:37.960Z,97.30
2019-03-27T18:55:09.530Z,97.50
2019-03-27T18:57:39.774Z,97.20
2019-03-27T19:00:11.371Z,97.20
2019-03-27T19:02:41.764Z,96.80
2019-03-27T19:05:12.412Z,96.90
2019-03-27T19:07:43.340Z,96.80
2019-03-27T19:10:14.571Z,96.90
2019-03-27T19:12:44.853Z,96.90
2019-03-27T19:15:15.379Z,96.90
2019-03-27T19:17:45.691Z,96.90
2019-03-27T19:20:16.197Z,97.00
2019-03-27T19:22:46.869Z,97.00
2019-03-27T19:25:17.132Z,97.00
2019-03-27T19:27:47.323Z,97.00
2019-03-27T19:30:17.963Z,97.00
2019-03-27T19:32:48.237Z,96.90
2019-03-27T19:35:18.603Z,96.80
2019-03-27T19:37:50.727Z,96.80
2019-03-27T19:40:20.731Z,96.80
2019-03-27T19:42:50.999Z,96.80
2019-03-27T19:45:21.333Z,97.10
2019-03-27T19:47:51.518Z,96.80
2019-03-27T19:50:22.539Z,96.80
2019-03-27T19:52:52.689Z,96.90
2019-03-27T19:55:23.183Z,96.80
2019-03-27T19:57:53.465Z,96.80
2019-03-27T20:00:24.238Z,96.80
2019-03-27T20:02:54.537Z,96.80
2019-03-27T20:05:24.942Z,96.80
2019-03-27T20:07:55.251Z,96.80
2019-03-27T20:10:25.578Z,96.70
2019-03-27T20:12:55.882Z,96.70
2019-03-27T20:15:26.357Z,96.60
2019-03-27T20:17:56.632Z,96.60
2019-03-27T20:20:27.103Z,96.60
2019-03-27T20:22:57.291Z,96.60
2019-03-27T20:25:27.643Z,96.50
2019-03-27T20:27:58.012Z,96.50
2019-03-27T20:30:28.632Z,96.60
2019-03-27T20:32:58.894Z,96.40
2019-03-27T20:35:29.802Z,96.20
2019-03-27T20:38:00.273Z,96.20
2019-03-27T20:40:31.734Z,96.30
2019-03-27T20:43:04.890Z,96.20
2019-03-27T20:45:35.317Z,96.30
2019-03-27T20:48:05.587Z,96.30
2019-03-27T20:50:35.948Z,96.30
2019-03-27T20:53:10.592Z,96.10
2019-03-27T20:55:43.756Z,96.10
2019-03-27T20:58:14.139Z,96.10
2019-03-27T21:00:44.583Z,96.00
2019-03-27T21:03:14.833Z,96.00
2019-03-27T21:05:46.920Z,95.90
2019-03-27T21:08:18.818Z,95.90
2019-03-27T21:10:53.226Z,95.80
2019-03-27T21:13:23.489Z,95.80
2019-03-27T21:15:55.400Z,95.80
2019-03-27T21:18:25.695Z,95.80
2019-03-27T21:20:56.082Z,95.70
2019-03-27T21:23:26.559Z,95.80
2019-03-27T21:25:56.819Z,95.80
2019-03-27T21:28:27.307Z,95.70
2019-03-27T21:30:57.803Z,95.70
2019-03-27T21:33:31.183Z,95.70
2019-03-27T21:36:03.056Z,95.60
2019-03-27T21:38:33.444Z,95.60
2019-03-27T21:41:03.840Z,95.60
2019-03-27T21:43:34.355Z,95.50
2019-03-27T21:46:04.858Z,95.40
2019-03-27T21:48:39.172Z,95.50
2019-03-27T21:51:11.668Z,95.70
2019-03-27T21:53:41.921Z,95.60
2019-03-27T21:56:12.337Z,95.90
2019-03-27T21:58:43.751Z,96.60
2019-03-27T22:01:14.124Z,97.20
2019-03-27T22:03:44.669Z,97.60
2019-03-27T22:06:19.382Z,97.90
2019-03-27T22:08:49.684Z,98.00
2019-03-27T22:11:20.127Z,98.00
2019-03-27T22:13:50.397Z,98.10
2019-03-27T22:16:20.848Z,98.00
2019-03-27T22:18:51.155Z,97.80
2019-03-27T22:21:21.618Z,97.80
2019-03-27T22:23:53.016Z,97.60
2019-03-27T22:26:23.376Z,97.60
2019-03-27T22:28:53.786Z,97.40
2019-03-27T22:31:24.284Z,97.40
2019-03-27T22:33:56.045Z,97.20
2019-03-27T22:36:26.397Z,97.10
2019-03-27T22:38:57.045Z,97.10
2019-03-27T22:41:27.775Z,97.00
2019-03-27T22:44:01.229Z,96.90
2019-03-27T22:46:31.596Z,96.90
2019-03-27T22:49:05.221Z,96.90
2019-03-27T22:51:35.538Z,96.80
2019-03-27T22:54:05.812Z,96.70
2019-03-27T22:56:36.186Z,96.70
2019-03-27T22:59:06.472Z,96.60
2019-03-27T23:01:45.341Z,96.50
2019-03-27T23:04:15.621Z,96.40
2019-03-27T23:06:45.991Z,96.40
2019-03-27T23:09:16.274Z,96.50
2019-03-27T23:11:49.708Z,96.40
2019-03-27T23:14:19.976Z,96.40
2019-03-27T23:16:50.504Z,96.40
2019-03-27T23:19:20.828Z,96.50
2019-03-27T23:21:51.108Z,96.40
2019-03-27T23:24:21.424Z,96.50
2019-03-27T23:26:51.779Z,96.60
2019-03-27T23:29:23.639Z,96.60
2019-03-27T23:31:53.922Z,96.60
2019-03-27T23:34:24.240Z,96.60
2019-03-27T23:36:55.678Z,96.70
2019-03-27T23:39:26.017Z,96.80
2019-03-27T23:41:56.318Z,96.90
2019-03-27T23:44:26.673Z,97.00
2019-03-27T23:46:56.959Z,97.10
2019-03-27T23:49:27.296Z,97.30
2019-03-27T23:51:57.569Z,97.60
2019-03-27T23:54:27.905Z,97.60
2019-03-27T23:56:58.186Z,97.70
2019-03-27T23:59:28.516Z,97.90
